createdAt,value
2018-05-10T00:01:56.254Z,13.10
2018-05-10T00:04:23.697Z,13.00
2018-05-10T00:06:52.004Z,13.00
2018-05-10T00:09:19.421Z,12.90
2018-05-10T00:11:47.633Z,13.00
2018-05-10T00:14:15.071Z,12.90
2018-05-10T00:16:42.512Z,12.90
2018-05-10T00:19:09.956Z,12.90
2018-05-10T00:21:38.160Z,12.80
2018-05-10T00:24:05.604Z,12.80
2018-05-10T00:26:33.032Z,12.80
2018-05-10T00:29:01.241Z,12.70
2018-05-10T00:31:28.681Z,12.60
2018-05-10T00:33:56.121Z,12.60
2018-05-10T00:36:24.328Z,12.60
2018-05-10T00:38:51.779Z,12.60
2018-05-10T00:41:19.219Z,12.70
2018-05-10T00:43:46.668Z,12.70
2018-05-10T00:46:14.114Z,12.60
2018-05-10T00:48:42.325Z,12.70
2018-05-10T00:51:10.008Z,12.70
2018-05-10T00:53:37.366Z,12.80
2018-05-10T00:56:04.803Z,12.80
2018-05-10T00:58:32.243Z,12.90
2018-05-10T01:00:59.687Z,13.00
2018-05-10T01:03:27.135Z,13.10
2018-05-10T01:05:54.572Z,13.10
2018-05-10T01:08:22.869Z,13.20
2018-05-10T01:10:50.212Z,13.20
2018-05-10T01:13:17.697Z,13.30
2018-05-10T01:15:45.131Z,13.30
2018-05-10T01:18:12.574Z,13.30
2018-05-10T01:20:40.787Z,13.40
2018-05-10T01:23:08.222Z,13.40
2018-05-10T01:25:35.674Z,13.50
2018-05-10T01:28:03.106Z,13.50
2018-05-10T01:30:30.559Z,13.50
2018-05-10T01:32:58.763Z,13.50
2018-05-10T01:35:38.157Z,13.50
2018-05-10T01:38:06.493Z,13.40
2018-05-10T01:40:33.920Z,13.40
2018-05-10T01:43:01.354Z,13.40
2018-05-10T01:45:28.937Z,13.40
2018-05-10T01:47:56.376Z,13.40
2018-05-10T01:50:23.815Z,13.50
2018-05-10T01:52:52.016Z,13.40
2018-05-10T01:55:19.517Z,13.40
2018-05-10T01:57:46.903Z,13.30
2018-05-10T02:00:14.338Z,13.30
2018-05-10T02:02:42.569Z,13.10
2018-05-10T02:05:10.004Z,13.10
2018-05-10T02:07:37.441Z,13.10
2018-05-10T02:10:04.891Z,13.10
2018-05-10T02:12:32.329Z,13.10
2018-05-10T02:14:59.763Z,13.10
2018-05-10T02:17:27.197Z,13.10
2018-05-10T02:19:55.409Z,13.00
2018-05-10T02:22:23.612Z,13.00
2018-05-10T02:24:51.076Z,13.00
2018-05-10T02:27:18.491Z,13.00
2018-05-10T02:29:47.070Z,12.90
2018-05-10T02:32:14.454Z,12.90
2018-05-10T02:34:41.889Z,12.90
2018-05-10T02:37:10.096Z,12.80
2018-05-10T02:39:37.538Z,12.80
2018-05-10T02:42:04.976Z,12.80
2018-05-10T02:44:33.180Z,12.60
2018-05-10T02:47:00.616Z,12.50
2018-05-10T02:49:28.065Z,12.40
2018-05-10T02:51:55.520Z,12.30
2018-05-10T02:54:23.812Z,12.10
2018-05-10T02:56:51.266Z,12.10
2018-05-10T02:59:18.706Z,12.10
2018-05-10T03:01:46.153Z,12.10
2018-05-10T03:04:13.633Z,12.10
2018-05-10T03:06:41.080Z,12.10
2018-05-10T03:09:08.516Z,12.10
2018-05-10T03:11:35.949Z,12.20
2018-05-10T03:14:04.164Z,12.60
2018-05-10T03:16:31.618Z,12.60
2018-05-10T03:18:59.079Z,12.80
2018-05-10T03:21:26.489Z,12.80
2018-05-10T03:23:54.700Z,12.90
2018-05-10T03:26:22.161Z,12.80
2018-05-10T03:28:49.597Z,12.80
2018-05-10T03:31:17.045Z,12.80
2018-05-10T03:33:44.492Z,12.70
2018-05-10T03:36:12.700Z,12.60
2018-05-10T03:38:40.260Z,12.60
2018-05-10T03:41:07.697Z,12.50
2018-05-10T03:43:35.132Z,12.50
2018-05-10T03:46:03.348Z,12.40
2018-05-10T03:48:30.786Z,12.30
2018-05-10T03:50:58.208Z,12.30
2018-05-10T03:53:26.434Z,12.30
2018-05-10T03:55:53.865Z,12.30
2018-05-10T03:58:21.649Z,12.50
2018-05-10T04:00:49.089Z,12.80
2018-05-10T04:03:51.020Z,13.10
2018-05-10T04:09:34.250Z,13.50
2018-05-10T04:12:01.697Z,13.50
2018-05-10T04:14:29.153Z,13.60
2018-05-10T04:16:56.599Z,13.60
2018-05-10T04:19:24.112Z,13.60
2018-05-10T04:21:51.786Z,13.60
2018-05-10T04:24:19.233Z,13.70
2018-05-10T04:26:46.676Z,13.80
2018-05-10T04:29:14.119Z,13.80
2018-05-10T04:31:41.558Z,13.90
2018-05-10T04:34:09.766Z,14.10
2018-05-10T04:36:37.203Z,14.10
2018-05-10T04:39:04.648Z,14.20
2018-05-10T04:41:32.086Z,14.40
2018-05-10T04:44:00.296Z,14.60
2018-05-10T04:46:27.743Z,14.60
2018-05-10T04:48:55.180Z,14.70
2018-05-10T04:51:22.646Z,14.90
2018-05-10T04:53:50.084Z,15.00
2018-05-10T04:56:18.287Z,15.30
2018-05-10T04:58:45.748Z,15.30
2018-05-10T05:01:13.528Z,15.50
2018-05-10T05:03:40.959Z,15.60
2018-05-10T05:06:08.395Z,15.80
2018-05-10T05:08:35.837Z,15.90
2018-05-10T05:11:04.045Z,16.10
2018-05-10T05:13:31.930Z,16.10
2018-05-10T05:15:59.364Z,16.10
2018-05-10T05:18:26.806Z,16.00
2018-05-10T05:20:54.257Z,16.00
2018-05-10T05:23:21.712Z,16.00
2018-05-10T05:25:49.148Z,16.00
2018-05-10T05:28:17.354Z,15.80
2018-05-10T05:30:44.805Z,15.80
2018-05-10T05:33:12.246Z,15.70
2018-05-10T05:35:39.760Z,15.70
2018-05-10T05:38:07.923Z,15.60
2018-05-10T05:40:35.358Z,15.60
2018-05-10T05:43:02.815Z,15.50
2018-05-10T05:45:30.284Z,15.50
2018-05-10T05:47:57.730Z,15.50
2018-05-10T05:50:25.180Z,15.40
2018-05-10T05:52:52.613Z,15.40
2018-05-10T05:55:20.069Z,15.40
2018-05-10T05:57:47.501Z,15.40
2018-05-10T06:00:14.954Z,15.50
2018-05-10T06:02:42.399Z,15.60
2018-05-10T06:05:10.613Z,15.70
2018-05-10T06:07:38.053Z,15.70
2018-05-10T06:10:09.567Z,15.90
2018-05-10T06:12:37.343Z,16.00
2018-05-10T06:15:05.538Z,16.60
2018-05-10T06:17:32.980Z,16.50
2018-05-10T06:20:00.416Z,16.80
2018-05-10T06:22:28.637Z,17.40
2018-05-10T06:24:56.188Z,17.40
2018-05-10T06:27:23.517Z,17.70
2018-05-10T06:29:51.322Z,18.10
2018-05-10T06:32:18.757Z,18.60
2018-05-10T06:34:46.196Z,19.00
2018-05-10T06:37:13.636Z,19.40
2018-05-10T06:39:42.422Z,19.40
2018-05-10T06:42:10.633Z,19.10
2018-05-10T06:44:38.060Z,19.10
2018-05-10T06:47:05.513Z,18.90
2018-05-10T06:49:32.948Z,18.50
2018-05-10T06:52:01.468Z,18.10
2018-05-10T06:54:28.902Z,18.00
2018-05-10T06:56:56.341Z,17.90
2018-05-10T06:59:24.549Z,17.70
2018-05-10T07:01:52.000Z,17.70
2018-05-10T07:04:19.443Z,17.60
2018-05-10T07:06:46.880Z,17.60
2018-05-10T07:09:15.192Z,17.50
2018-05-10T07:11:42.545Z,17.50
2018-05-10T07:14:09.981Z,17.50
2018-05-10T07:16:37.436Z,17.50
2018-05-10T07:19:04.879Z,17.50
2018-05-10T07:21:33.079Z,17.70
2018-05-10T07:24:00.548Z,17.70
2018-05-10T07:26:27.983Z,17.90
2018-05-10T07:28:55.416Z,18.10
2018-05-10T07:31:22.872Z,18.30
2018-05-10T07:33:50.312Z,18.50
2018-05-10T07:36:18.524Z,19.10
2018-05-10T07:38:45.962Z,19.10
2018-05-10T07:41:13.396Z,19.30
2018-05-10T07:43:41.611Z,19.30
2018-05-10T07:46:09.052Z,19.30
2018-05-10T07:48:36.496Z,19.30
2018-05-10T07:51:03.935Z,19.10
2018-05-10T07:53:32.141Z,18.50
2018-05-10T07:55:59.579Z,18.50
2018-05-10T07:58:27.036Z,18.10
2018-05-10T08:00:54.543Z,17.80
2018-05-10T08:03:22.681Z,17.40
2018-05-10T08:05:50.231Z,17.30
2018-05-10T08:10:51.680Z,17.00
2018-05-10T08:13:19.116Z,16.80
2018-05-10T08:15:47.331Z,16.40
2018-05-10T08:18:14.776Z,16.40
2018-05-10T08:20:42.273Z,16.30
2018-05-10T08:23:09.668Z,16.20
2018-05-10T08:25:37.116Z,16.10
2018-05-10T08:28:04.552Z,15.90
2018-05-10T08:30:32.767Z,15.60
2018-05-10T08:33:00.319Z,15.60
2018-05-10T08:35:27.753Z,15.40
2018-05-10T08:37:55.231Z,15.10
2018-05-10T08:40:22.661Z,14.80
2018-05-10T08:42:50.877Z,14.40
2018-05-10T08:45:18.310Z,14.40
2018-05-10T08:47:45.758Z,14.30
2018-05-10T08:50:13.194Z,14.20
2018-05-10T08:52:41.677Z,14.00
2018-05-10T08:55:09.878Z,13.90
2018-05-10T08:57:37.306Z,13.90
2018-05-10T09:00:04.804Z,14.00
2018-05-10T09:02:32.958Z,14.10
2018-05-10T09:05:00.414Z,14.00
2018-05-10T09:07:27.885Z,14.10
2018-05-10T09:09:55.285Z,14.10
2018-05-10T09:12:23.500Z,14.10
2018-05-10T09:14:50.934Z,14.20
2018-05-10T09:17:18.730Z,14.20
2018-05-10T09:19:46.161Z,14.20
2018-05-10T09:22:13.632Z,14.20
2018-05-10T09:24:41.408Z,14.10
2018-05-10T09:27:08.856Z,14.10
2018-05-10T09:29:36.286Z,14.00
2018-05-10T09:32:03.736Z,14.10
2018-05-10T09:34:31.185Z,14.10
2018-05-10T09:36:58.622Z,14.10
2018-05-10T09:39:26.867Z,14.00
2018-05-10T09:41:54.269Z,14.00
2018-05-10T09:44:21.720Z,14.00
2018-05-10T09:46:49.168Z,14.00
2018-05-10T09:49:16.608Z,14.00
2018-05-10T09:51:44.828Z,14.10
2018-05-10T09:54:12.275Z,14.10
2018-05-10T09:56:39.907Z,14.20
2018-05-10T09:59:07.356Z,14.30
2018-05-10T10:01:35.598Z,14.30
2018-05-10T10:04:03.221Z,14.30
2018-05-10T10:06:30.661Z,14.30
2018-05-10T10:08:58.100Z,14.50
2018-05-10T10:11:26.312Z,14.90
2018-05-10T10:13:53.748Z,14.80
2018-05-10T10:16:21.194Z,15.10
2018-05-10T10:18:48.645Z,15.40
2018-05-10T10:21:16.090Z,15.60
2018-05-10T10:23:44.291Z,16.00
2018-05-10T10:26:11.739Z,16.00
2018-05-10T10:28:39.185Z,16.20
2018-05-10T10:31:06.621Z,16.50
2018-05-10T10:33:34.823Z,17.00
2018-05-10T10:36:02.275Z,17.00
2018-05-10T10:38:29.721Z,17.30
2018-05-10T10:40:57.157Z,17.60
2018-05-10T10:43:25.388Z,18.20
2018-05-10T10:45:52.854Z,18.10
2018-05-10T10:48:20.299Z,18.40
2018-05-10T10:50:47.764Z,18.70
2018-05-10T10:53:15.285Z,18.90
2018-05-10T10:55:42.792Z,19.20
2018-05-10T10:58:10.263Z,19.30
2018-05-10T11:00:38.481Z,19.60
2018-05-10T11:03:05.917Z,19.60
2018-05-10T11:05:33.381Z,19.60
2018-05-10T11:08:00.907Z,19.90
2018-05-10T11:10:28.325Z,20.20
2018-05-10T11:12:55.777Z,20.40
2018-05-10T11:15:23.224Z,20.50
2018-05-10T11:17:50.656Z,20.50
2018-05-10T11:20:18.126Z,20.50
2018-05-10T11:22:45.566Z,20.40
2018-05-10T11:25:13.003Z,20.40
2018-05-10T11:27:40.448Z,20.40
2018-05-10T11:30:07.904Z,20.50
2018-05-10T11:32:36.121Z,21.10
2018-05-10T11:35:03.570Z,21.10
2018-05-10T11:37:31.016Z,21.30
2018-05-10T11:39:59.112Z,21.70
2018-05-10T11:42:26.575Z,21.70
2018-05-10T11:44:54.715Z,21.60
2018-05-10T11:47:22.183Z,21.70
2018-05-10T11:49:49.626Z,22.00
2018-05-10T11:52:17.063Z,22.40
2018-05-10T11:54:44.504Z,22.60
2018-05-10T11:57:12.014Z,22.90
2018-05-10T11:59:39.411Z,23.10
2018-05-10T12:02:06.858Z,23.00
2018-05-10T12:04:35.164Z,23.00
2018-05-10T12:07:02.580Z,23.00
2018-05-10T12:09:30.888Z,22.50
2018-05-10T12:11:58.321Z,22.50
2018-05-10T12:14:25.753Z,22.30
2018-05-10T12:16:53.973Z,21.50
2018-05-10T12:19:21.421Z,21.50
2018-05-10T12:21:48.878Z,21.00
2018-05-10T12:24:16.312Z,20.40
2018-05-10T12:26:43.750Z,20.00
2018-05-10T12:29:11.976Z,19.50
2018-05-10T12:31:39.412Z,19.40
2018-05-10T12:34:06.855Z,19.50
2018-05-10T12:36:34.323Z,19.80
2018-05-10T12:39:01.753Z,20.10
2018-05-10T12:41:29.261Z,20.50
2018-05-10T12:43:57.404Z,21.30
2018-05-10T12:46:24.851Z,21.30
2018-05-10T12:48:52.310Z,21.70
2018-05-10T12:51:19.756Z,22.10
2018-05-10T12:53:47.308Z,22.60
2018-05-10T12:56:15.619Z,22.90
2018-05-10T12:58:42.956Z,22.90
2018-05-10T13:01:10.408Z,23.00
2018-05-10T13:03:37.856Z,23.10
2018-05-10T13:06:05.293Z,23.40
2018-05-10T13:08:32.748Z,23.30
2018-05-10T13:11:00.183Z,23.30
2018-05-10T13:13:27.628Z,23.20
2018-05-10T13:15:55.069Z,22.90
2018-05-10T13:18:22.520Z,22.70
2018-05-10T13:20:49.951Z,22.20
2018-05-10T13:23:17.506Z,21.50
2018-05-10T13:25:44.926Z,20.80
2018-05-10T13:28:13.147Z,19.50
2018-05-10T13:30:40.606Z,19.50
2018-05-10T13:33:08.049Z,19.20
2018-05-10T13:35:35.506Z,18.90
2018-05-10T13:38:02.985Z,18.70
2018-05-10T13:40:30.425Z,18.50
2018-05-10T13:42:57.865Z,18.30
2018-05-10T13:45:25.350Z,18.10
2018-05-10T13:47:52.795Z,18.00
2018-05-10T13:50:20.231Z,17.90
2018-05-10T13:52:47.689Z,17.80
2018-05-10T13:55:15.141Z,17.70
2018-05-10T13:57:42.592Z,17.70
2018-05-10T14:00:10.056Z,17.70
2018-05-10T14:02:37.501Z,17.70
2018-05-10T14:05:04.936Z,17.60
2018-05-10T14:07:32.404Z,17.30
2018-05-10T14:09:59.836Z,17.10
2018-05-10T14:12:27.281Z,16.90
2018-05-10T14:14:55.488Z,16.60
2018-05-10T14:17:22.950Z,16.60
2018-05-10T14:19:50.376Z,16.60
2018-05-10T14:22:17.821Z,16.60
2018-05-10T14:24:46.090Z,16.60
2018-05-10T14:27:13.480Z,16.60
2018-05-10T14:29:40.973Z,16.70
2018-05-10T14:32:08.406Z,16.70
2018-05-10T14:34:35.856Z,16.70
2018-05-10T14:37:03.301Z,16.60
2018-05-10T14:39:30.785Z,16.50
2018-05-10T14:41:58.224Z,16.30
2018-05-10T14:44:25.679Z,16.10
2018-05-10T14:46:53.117Z,15.90
2018-05-10T14:49:20.569Z,15.80
2018-05-10T14:51:48.106Z,15.60
2018-05-10T14:54:16.293Z,15.30
2018-05-10T14:56:43.732Z,15.30
2018-05-10T14:59:11.190Z,15.10
2018-05-10T15:01:38.615Z,14.90
2018-05-10T15:04:06.053Z,14.80
2018-05-10T15:06:33.503Z,14.70
2018-05-10T15:09:01.011Z,14.60
2018-05-10T15:11:28.386Z,14.60
2018-05-10T15:13:55.841Z,14.50
2018-05-10T15:16:23.478Z,14.40
2018-05-10T15:18:50.916Z,14.20
2018-05-10T15:21:19.120Z,14.10
2018-05-10T15:23:46.625Z,14.00
2018-05-10T15:26:14.015Z,13.90
2018-05-10T15:28:41.444Z,13.80
2018-05-10T15:31:09.649Z,13.60
2018-05-10T15:33:37.113Z,13.60
2018-05-10T15:36:04.558Z,13.50
2018-05-10T15:38:32.346Z,13.40
2018-05-10T15:40:59.810Z,13.30
2018-05-10T15:43:27.247Z,13.20
2018-05-10T15:45:54.713Z,13.10
2018-05-10T15:48:22.260Z,13.00
2018-05-10T15:50:50.033Z,13.00
2018-05-10T15:53:17.478Z,13.00
2018-05-10T15:55:44.906Z,12.90
2018-05-10T15:58:12.348Z,12.90
2018-05-10T16:00:40.552Z,13.00
2018-05-10T16:03:08.077Z,13.00
2018-05-10T16:05:35.445Z,13.00
2018-05-10T16:08:03.243Z,12.90
2018-05-10T16:10:30.681Z,12.90
2018-05-10T16:12:58.139Z,13.00
2018-05-10T16:15:25.557Z,13.00
2018-05-10T16:17:53.759Z,13.10
2018-05-10T16:20:21.208Z,13.10
2018-05-10T16:22:48.657Z,13.20
2018-05-10T16:25:16.104Z,13.10
2018-05-10T16:27:43.543Z,13.00
2018-05-10T16:30:11.748Z,12.90
2018-05-10T16:32:39.199Z,12.80
2018-05-10T16:35:06.746Z,12.70
2018-05-10T16:37:34.175Z,12.60
2018-05-10T16:40:02.388Z,12.50
2018-05-10T16:42:29.842Z,12.50
2018-05-10T16:44:57.271Z,12.50
2018-05-10T16:47:24.753Z,12.40
2018-05-10T16:49:52.200Z,12.40
2018-05-10T16:52:19.648Z,12.40
2018-05-10T16:54:47.395Z,12.40
2018-05-10T16:57:14.829Z,12.40
2018-05-10T17:05:39.115Z,12.20
2018-05-10T17:08:06.576Z,12.20
2018-05-10T17:10:35.962Z,12.20
2018-05-10T17:13:03.412Z,12.20
2018-05-10T17:15:32.617Z,12.10
2018-05-10T17:18:00.039Z,12.10
2018-05-10T17:20:27.470Z,12.10
2018-05-10T17:22:57.137Z,12.10
2018-05-10T17:25:24.552Z,12.20
2018-05-10T17:27:51.992Z,12.10
2018-05-10T17:30:19.455Z,12.10
2018-05-10T17:32:46.956Z,12.10
2018-05-10T17:35:15.153Z,12.10
2018-05-10T17:37:44.653Z,12.10
2018-05-10T17:40:12.108Z,12.10
2018-05-10T17:42:39.567Z,12.10
2018-05-10T17:45:07.007Z,12.10
2018-05-10T17:47:34.459Z,12.10
2018-05-10T17:50:01.975Z,12.10
2018-05-10T17:52:29.439Z,12.00
2018-05-10T17:54:56.902Z,12.00
2018-05-10T17:57:25.336Z,11.90
2018-05-10T17:59:52.848Z,11.90
2018-05-10T18:02:23.484Z,11.90
2018-05-10T18:04:51.283Z,11.90
2018-05-10T18:07:18.793Z,11.80
2018-05-10T18:09:47.017Z,11.70
2018-05-10T18:12:14.490Z,11.70
2018-05-10T18:14:41.927Z,11.80
2018-05-10T18:17:09.419Z,11.70
2018-05-10T18:19:36.895Z,11.70
2018-05-10T18:22:04.343Z,11.70
2018-05-10T18:24:31.799Z,11.70
2018-05-10T18:27:00.003Z,11.70
2018-05-10T18:29:27.439Z,11.70
2018-05-10T18:31:54.954Z,11.70
2018-05-10T18:34:22.567Z,11.60
2018-05-10T18:36:50.036Z,11.70
2018-05-10T18:39:17.639Z,11.70
2018-05-10T18:41:45.851Z,11.60
2018-05-10T18:44:14.050Z,11.60
2018-05-10T18:46:41.491Z,11.60
2018-05-10T18:49:08.967Z,11.60
2018-05-10T18:51:36.402Z,11.60
2018-05-10T18:54:03.842Z,11.60
2018-05-10T18:56:31.292Z,11.60
2018-05-10T18:58:58.754Z,11.60
2018-05-10T19:01:26.182Z,11.50
2018-05-10T19:03:53.622Z,11.50
2018-05-10T19:06:21.084Z,11.50
2018-05-10T19:08:48.556Z,11.50
2018-05-10T19:11:16.007Z,11.50
2018-05-10T19:13:43.422Z,11.50
2018-05-10T19:16:10.932Z,11.40
2018-05-10T19:18:38.381Z,11.50
2018-05-10T19:21:05.842Z,11.50
2018-05-10T19:23:33.307Z,11.50
2018-05-10T19:26:01.511Z,11.40
2018-05-10T19:28:28.948Z,11.40
2018-05-10T19:30:56.408Z,11.40
2018-05-10T19:33:23.899Z,11.40
2018-05-10T19:35:51.355Z,11.40
2018-05-10T19:38:18.818Z,11.30
2018-05-10T19:40:46.258Z,11.30
2018-05-10T19:43:14.692Z,11.30
2018-05-10T19:45:42.293Z,11.30
2018-05-10T19:48:10.491Z,11.30
2018-05-10T19:50:37.943Z,11.30
2018-05-10T19:53:05.388Z,11.30
2018-05-10T19:55:32.835Z,11.30
2018-05-10T19:58:00.279Z,11.30
2018-05-10T20:00:27.714Z,11.30
2018-05-10T20:02:55.226Z,11.30
2018-05-10T20:05:22.636Z,11.30
2018-05-10T20:07:50.082Z,11.30
2018-05-10T20:10:17.607Z,11.20
2018-05-10T20:12:48.431Z,11.20
2018-05-10T20:15:15.871Z,11.20
2018-05-10T20:17:44.281Z,11.20
2018-05-10T20:20:11.731Z,11.20
2018-05-10T20:22:39.170Z,11.20
2018-05-10T20:25:06.615Z,11.30
2018-05-10T20:27:34.819Z,11.30
2018-05-10T20:30:02.259Z,11.30
2018-05-10T20:32:29.763Z,11.30
2018-05-10T20:34:57.163Z,11.30
2018-05-10T20:37:25.365Z,11.30
2018-05-10T20:39:52.995Z,11.30
2018-05-10T20:42:23.661Z,11.30
2018-05-10T20:44:52.051Z,11.40
2018-05-10T20:47:19.487Z,11.40
2018-05-10T20:49:47.203Z,11.40
2018-05-10T20:52:14.648Z,11.30
2018-05-10T20:54:42.087Z,11.30
2018-05-10T20:57:10.509Z,11.40
2018-05-10T20:59:37.959Z,11.40
2018-05-10T21:02:05.392Z,11.40
2018-05-10T21:04:32.831Z,11.30
2018-05-10T21:07:00.262Z,11.30
2018-05-10T21:09:27.729Z,11.30
2018-05-10T21:11:55.158Z,11.30
2018-05-10T21:14:22.591Z,11.20
2018-05-10T21:16:50.811Z,11.20
2018-05-10T21:19:18.243Z,11.20
2018-05-10T21:21:45.699Z,11.20
2018-05-10T21:24:13.130Z,11.20
2018-05-10T21:26:40.583Z,11.20
2018-05-10T21:29:08.024Z,11.20
2018-05-10T21:31:35.533Z,11.20
2018-05-10T21:34:03.027Z,11.20
2018-05-10T21:36:30.318Z,11.20
2018-05-10T21:38:57.754Z,11.10
2018-05-10T21:41:25.203Z,11.10
2018-05-10T21:43:52.639Z,11.10
2018-05-10T21:46:20.088Z,11.10
2018-05-10T21:48:47.519Z,11.10
2018-05-10T21:51:14.962Z,11.00
2018-05-10T21:53:42.391Z,11.00
2018-05-10T21:56:09.846Z,11.00
2018-05-10T21:58:37.256Z,10.90
2018-05-10T22:01:04.717Z,10.90
2018-05-10T22:03:32.160Z,10.90
2018-05-10T22:05:59.870Z,10.90
2018-05-10T22:08:27.309Z,10.90
2018-05-10T22:10:54.736Z,10.90
2018-05-10T22:13:22.219Z,10.90
2018-05-10T22:15:49.660Z,10.90
2018-05-10T22:18:17.103Z,10.90
2018-05-10T22:20:44.529Z,10.90
2018-05-10T22:23:12.217Z,11.00
2018-05-10T22:25:39.656Z,11.00
2018-05-10T22:28:07.109Z,11.10
2018-05-10T22:30:34.543Z,11.10
2018-05-10T22:33:01.969Z,11.20
2018-05-10T22:35:29.487Z,11.30
2018-05-10T22:37:56.863Z,11.20
2018-05-10T22:40:24.766Z,11.30
2018-05-10T22:42:52.199Z,11.20
2018-05-10T22:45:19.639Z,11.20
2018-05-10T22:47:47.075Z,11.20
2018-05-10T22:50:14.501Z,11.20
2018-05-10T22:52:41.933Z,11.10
2018-05-10T22:55:09.378Z,11.10
2018-05-10T22:57:36.814Z,11.10
2018-05-10T23:00:04.262Z,11.00
2018-05-10T23:02:31.699Z,11.00
2018-05-10T23:04:59.134Z,11.00
2018-05-10T23:07:27.350Z,10.90
2018-05-10T23:09:54.795Z,10.90
2018-05-10T23:12:22.239Z,10.90
2018-05-10T23:14:49.675Z,10.90
2018-05-10T23:17:17.114Z,10.80
2018-05-10T23:19:44.558Z,10.80
2018-05-10T23:22:11.995Z,10.80
2018-05-10T23:24:39.434Z,10.80
2018-05-10T23:27:06.891Z,10.70
2018-05-10T23:29:34.406Z,10.70
2018-05-10T23:32:01.806Z,10.70
2018-05-10T23:34:29.262Z,10.70
2018-05-10T23:36:56.687Z,10.70
2018-05-10T23:39:24.116Z,10.60
2018-05-10T23:41:51.552Z,10.60
2018-05-10T23:44:19.754Z,10.40
2018-05-10T23:46:47.180Z,10.40
2018-05-10T23:49:14.614Z,10.40
2018-05-10T23:51:42.047Z,10.30
2018-05-10T23:54:09.474Z,10.30
2018-05-10T23:56:36.924Z,10.20
2018-05-10T23:59:04.347Z,10.20
